Time;durP1;ratioP1;P1;durP2;ratioP2;P2;SDS_P1;SDS_P2;PMS_P1;PMS_P2;Temp;Humidity;BMP_temperature;BMP_pressure;BME280_temperature;BME280_humidity;BME280_pressure;Samples;Min_cycle;Max_cycle;Signal;HPM_P1;HPM_P2
2022/06/30 00:01:37;;;;;;;1.10;0.57;;;17.30;61.00;;;;;;4940131;28;20035;-74
2022/06/30 00:04:03;;;;;;;2.67;0.60;;;17.30;61.10;;;;;;4915264;28;20391;-74
2022/06/30 00:06:30;;;;;;;1.55;0.60;;;17.20;60.90;;;;;;4942729;28;20066;-74
2022/06/30 00:08:56;;;;;;;2.60;0.70;;;17.20;61.00;;;;;;4936321;28;20035;-74
2022/06/30 00:11:22;;;;;;;1.42;0.50;;;17.20;61.00;;;;;;4941944;28;20471;-75
2022/06/30 00:13:48;;;;;;;3.33;0.68;;;17.20;61.10;;;;;;4922545;29;20065;-75
2022/06/30 00:16:14;;;;;;;4.63;0.60;;;17.20;61.10;;;;;;4941336;28;20036;-74
2022/06/30 00:18:40;;;;;;;2.08;0.50;;;17.10;61.00;;;;;;4931204;28;20218;-74
2022/06/30 00:21:06;;;;;;;1.63;0.30;;;17.10;61.00;;;;;;4940263;28;20149;-74
2022/06/30 00:23:32;;;;;;;0.82;0.40;;;17.10;61.10;;;;;;4938394;28;20489;-74
2022/06/30 00:25:58;;;;;;;2.33;0.50;;;17.10;61.10;;;;;;4921537;29;20047;-75
2022/06/30 00:28:24;;;;;;;1.20;0.50;;;17.00;61.50;;;;;;4934667;28;20028;-74
2022/06/30 00:30:51;;;;;;;1.73;0.50;;;17.00;61.00;;;;;;4918837;28;20079;-74
2022/06/30 00:33:17;;;;;;;1.63;0.45;;;17.00;61.00;;;;;;4924477;28;20035;-75
2022/06/30 00:35:44;;;;;;;1.40;0.63;;;17.00;61.10;;;;;;4940305;28;20062;-74
2022/06/30 00:38:10;;;;;;;3.30;0.65;;;17.00;61.10;;;;;;4944762;28;20023;-74
2022/06/30 00:40:42;;;;;;;1.30;0.43;;;16.90;61.00;;;;;;4942915;28;20214;-75
2022/06/30 00:43:08;;;;;;;1.33;0.52;;;16.90;61.10;;;;;;4934090;28;20309;-73
2022/06/30 00:45:45;;;;;;;1.70;0.60;;;16.90;61.10;;;;;;4928220;29;20035;-74
2022/06/30 00:48:12;;;;;;;1.90;0.55;;;16.90;61.20;;;;;;4908508;29;20031;-74
2022/06/30 00:50:38;;;;;;;3.03;0.75;;;16.80;61.00;;;;;;4949002;28;20053;-74
2022/06/30 00:53:05;;;;;;;3.47;0.60;;;16.80;61.10;;;;;;4945122;28;20105;-74
2022/06/30 00:55:32;;;;;;;3.38;0.30;;;16.80;61.10;;;;;;4947180;28;20028;-75
2022/06/30 00:58:06;;;;;;;1.05;0.50;;;16.80;61.20;;;;;;4942309;28;20032;-75
2022/06/30 01:00:35;;;;;;;1.20;0.40;;;16.70;61.00;;;;;;4940330;28;20099;-74
2022/06/30 01:03:01;;;;;;;3.13;0.70;;;16.70;61.00;;;;;;4945039;28;20032;-75
2022/06/30 01:05:28;;;;;;;1.95;0.55;;;16.70;61.00;;;;;;4944781;28;20041;-74
2022/06/30 01:07:55;;;;;;;1.13;0.57;;;16.70;61.10;;;;;;4912057;28;20063;-75
2022/06/30 01:13:06;;;;;;;4.32;1.10;;;16.70;61.10;;;;;;4938599;28;20190;-74
2022/06/30 01:15:32;;;;;;;4.85;0.70;;;16.70;61.10;;;;;;4942675;28;20058;-75
2022/06/30 01:17:58;;;;;;;1.48;0.35;;;16.70;61.20;;;;;;4946220;28;20686;-74
2022/06/30 01:20:28;;;;;;;1.85;1.15;;;16.60;61.10;;;;;;4941771;28;20387;-75
2022/06/30 01:22:55;;;;;;;2.30;0.57;;;16.60;61.10;;;;;;4945427;28;20126;-74
2022/06/30 01:25:21;;;;;;;2.75;0.40;;;16.60;61.10;;;;;;4939276;28;20114;-76
2022/06/30 01:27:47;;;;;;;3.47;1.00;;;16.60;61.20;;;;;;4944270;28;20024;-75
2022/06/30 01:30:13;;;;;;;3.55;0.82;;;16.60;61.20;;;;;;4937409;28;20529;-75
2022/06/30 01:32:39;;;;;;;2.65;0.50;;;16.60;61.20;;;;;;4944563;28;20062;-74
2022/06/30 01:35:06;;;;;;;3.25;0.57;;;16.60;61.20;;;;;;4935656;28;20373;-74
2022/06/30 01:37:48;;;;;;;1.63;0.40;;;16.60;61.20;;;;;;4944681;28;20282;-75
2022/06/30 01:40:15;;;;;;;0.85;0.35;;;16.60;61.40;;;;;;4942401;28;20381;-74
2022/06/30 01:42:41;;;;;;;1.60;0.50;;;16.60;61.30;;;;;;4932853;28;20030;-74
2022/06/30 01:45:07;;;;;;;2.63;0.65;;;16.50;61.20;;;;;;4939966;28;20055;-74
2022/06/30 01:47:35;;;;;;;1.50;0.73;;;16.50;61.20;;;;;;4937602;28;20295;-74
2022/06/30 01:50:03;;;;;;;0.85;0.50;;;16.50;61.30;;;;;;4937167;28;20090;-74
2022/06/30 01:52:29;;;;;;;1.40;0.90;;;16.50;61.30;;;;;;4943720;28;20038;-74
2022/06/30 01:54:55;;;;;;;1.90;0.60;;;16.50;61.30;;;;;;4946555;28;20407;-75
2022/06/30 01:57:21;;;;;;;1.65;0.77;;;16.50;61.40;;;;;;4947295;28;20098;-74
2022/06/30 01:59:47;;;;;;;1.48;0.45;;;16.40;61.20;;;;;;4941221;28;20475;-74
2022/06/30 02:02:13;;;;;;;2.13;0.65;;;16.40;61.30;;;;;;4942203;28;20450;-74
2022/06/30 02:04:47;;;;;;;2.78;1.00;;;16.40;61.30;;;;;;4943931;28;20527;-73
2022/06/30 02:07:17;;;;;;;1.60;0.70;;;16.40;61.40;;;;;;4944237;28;20035;-75
2022/06/30 02:09:44;;;;;;;2.08;0.80;;;16.40;61.40;;;;;;4942937;28;20330;-74
2022/06/30 02:14:56;;;;;;;3.03;0.68;;;16.40;61.50;;;;;;4912531;29;20047;-73
2022/06/30 02:17:22;;;;;;;1.38;0.28;;;16.40;61.50;;;;;;4942359;28;20034;-72
2022/06/30 02:19:48;;;;;;;1.45;0.40;;;16.40;61.60;;;;;;4945029;28;20024;-75
2022/06/30 02:22:14;;;;;;;0.77;0.70;;;16.30;61.40;;;;;;4930558;29;20027;-73
2022/06/30 02:24:40;;;;;;;2.55;0.80;;;16.30;61.50;;;;;;4942108;28;20126;-74
2022/06/30 02:27:06;;;;;;;1.52;0.73;;;16.30;61.50;;;;;;4948187;29;20404;-74
2022/06/30 02:29:32;;;;;;;2.90;0.50;;;16.30;61.60;;;;;;4936687;28;20035;-74
2022/06/30 02:31:58;;;;;;;1.30;0.55;;;16.30;61.70;;;;;;4923833;29;20035;-75
2022/06/30 02:34:24;;;;;;;1.63;0.45;;;16.20;61.50;;;;;;4920606;29;20043;-75
2022/06/30 02:36:50;;;;;;;3.38;0.50;;;16.20;61.60;;;;;;4939190;28;20297;-74
2022/06/30 02:39:16;;;;;;;2.15;0.60;;;16.20;61.60;;;;;;4920335;28;20752;-74
2022/06/30 02:41:42;;;;;;;2.95;0.75;;;16.10;61.50;;;;;;4939473;28;20120;-75
2022/06/30 02:44:08;;;;;;;3.05;1.10;;;16.10;61.60;;;;;;4937341;28;20105;-73
2022/06/30 02:46:34;;;;;;;1.52;0.57;;;16.00;61.50;;;;;;4920780;29;20039;-75
2022/06/30 02:49:00;;;;;;;3.13;1.30;;;16.00;61.60;;;;;;4948575;28;20267;-74
2022/06/30 02:51:26;;;;;;;2.83;0.60;;;16.00;61.70;;;;;;4941077;28;20058;-73
2022/06/30 02:53:52;;;;;;;2.40;0.73;;;15.90;61.60;;;;;;4927712;29;20085;-74
2022/06/30 02:56:17;;;;;;;1.88;0.55;;;15.90;61.60;;;;;;4937337;28;20392;-75
2022/06/30 02:58:43;;;;;;;1.33;0.60;;;15.80;61.50;;;;;;4933422;28;20028;-74
2022/06/30 03:01:09;;;;;;;3.30;0.70;;;15.80;61.60;;;;;;4918895;29;20039;-75
2022/06/30 03:03:35;;;;;;;2.60;1.00;;;15.80;61.70;;;;;;4940985;28;20388;-74
2022/06/30 03:06:01;;;;;;;7.47;1.63;;;15.70;61.60;;;;;;4949382;28;20495;-75
2022/06/30 03:08:27;;;;;;;1.20;0.77;;;15.60;61.50;;;;;;4944380;28;20106;-74
2022/06/30 03:10:52;;;;;;;2.38;0.52;;;15.60;61.60;;;;;;4927345;29;20442;-75
2022/06/30 03:13:18;;;;;;;2.42;0.98;;;15.50;61.40;;;;;;4937237;28;20027;-74
2022/06/30 03:15:44;;;;;;;0.98;0.60;;;15.50;61.50;;;;;;4925209;29;20045;-75
2022/06/30 03:18:10;;;;;;;3.22;0.80;;;15.50;61.60;;;;;;4904867;29;20048;-75
2022/06/30 03:20:36;;;;;;;3.10;0.70;;;15.50;61.60;;;;;;4929198;29;20031;-74
2022/06/30 03:23:02;;;;;;;1.98;0.60;;;15.40;61.50;;;;;;4949835;28;20032;-74
2022/06/30 03:25:28;;;;;;;1.77;0.50;;;15.40;61.50;;;;;;4948168;28;20024;-75
2022/06/30 03:27:54;;;;;;;5.15;1.48;;;15.30;61.40;;;;;;4944684;28;20102;-74
2022/06/30 03:30:19;;;;;;;3.60;1.00;;;15.30;61.50;;;;;;4941298;28;20035;-74
2022/06/30 03:32:45;;;;;;;1.40;0.80;;;15.30;61.50;;;;;;4938928;28;20033;-73
2022/06/30 03:35:11;;;;;;;1.05;0.75;;;15.20;61.40;;;;;;4922727;28;20043;-74
2022/06/30 03:37:37;;;;;;;0.95;0.68;;;15.20;61.40;;;;;;4950186;28;20033;-74
2022/06/30 03:40:03;;;;;;;1.50;0.57;;;15.20;61.50;;;;;;4920558;29;20063;-75
2022/06/30 03:42:29;;;;;;;1.95;0.68;;;15.10;61.40;;;;;;4935727;28;20035;-75
2022/06/30 03:44:55;;;;;;;1.48;1.02;;;15.10;62.00;;;;;;4929822;28;20533;-74
2022/06/30 03:47:21;;;;;;;3.53;0.80;;;15.00;61.30;;;;;;4936650;28;20190;-75
2022/06/30 03:49:47;;;;;;;0.70;0.40;;;15.00;61.40;;;;;;4942169;28;20047;-74
2022/06/30 03:52:13;;;;;;;3.22;0.70;;;14.90;61.80;;;;;;4943934;28;20035;-74
2022/06/30 03:54:38;;;;;;;2.35;0.52;;;14.90;61.30;;;;;;4925340;29;20095;-73
2022/06/30 03:57:05;;;;;;;2.38;1.23;;;14.80;61.20;;;;;;4922447;29;20134;-73
2022/06/30 03:59:30;;;;;;;2.40;0.90;;;14.80;61.20;;;;;;4940270;28;20078;-73
2022/06/30 04:01:56;;;;;;;2.60;0.70;;;14.80;61.30;;;;;;4920187;28;20063;-73
2022/06/30 04:04:22;;;;;;;1.98;0.80;;;14.70;61.10;;;;;;4940853;28;20023;-73
2022/06/30 04:06:48;;;;;;;1.30;0.60;;;14.70;61.20;;;;;;4940993;28;20507;-74
2022/06/30 04:09:14;;;;;;;1.05;0.50;;;14.70;61.20;;;;;;4943537;28;20023;-74
2022/06/30 04:11:40;;;;;;;1.35;0.85;;;14.70;61.30;;;;;;4931237;29;20090;-73
2022/06/30 04:14:06;;;;;;;1.58;0.70;;;14.60;61.20;;;;;;4946952;28;20065;-75
2022/06/30 04:16:32;;;;;;;1.05;0.77;;;14.60;61.20;;;;;;4941363;28;20038;-73
2022/06/30 04:18:58;;;;;;;4.65;1.65;;;14.60;61.20;;;;;;4921055;28;20027;-73
2022/06/30 04:21:24;;;;;;;1.30;0.65;;;14.60;61.20;;;;;;4946370;28;20436;-73
2022/06/30 04:23:49;;;;;;;1.38;0.85;;;14.50;61.10;;;;;;4947820;28;20093;-75
2022/06/30 04:26:16;;;;;;;2.20;0.95;;;14.60;61.30;;;;;;4919419;28;20538;-74
2022/06/30 04:28:41;;;;;;;1.92;1.00;;;14.50;61.10;;;;;;4939058;28;20033;-74
2022/06/30 04:33:52;;;;;;;1.50;0.70;;;14.50;61.10;;;;;;4936072;28;20032;-74
2022/06/30 04:36:18;;;;;;;0.93;0.60;;;14.50;61.00;;;;;;4949298;28;20538;-74
2022/06/30 04:38:44;;;;;;;1.83;1.15;;;14.50;61.00;;;;;;4947598;28;20031;-74
2022/06/30 04:41:24;;;;;;;3.33;0.85;;;14.50;61.00;;;;;;4950197;28;20023;-74
2022/06/30 04:43:56;;;;;;;1.70;0.60;;;14.50;61.00;;;;;;4925125;29;20529;-74
2022/06/30 04:46:22;;;;;;;0.90;0.70;;;14.50;61.00;;;;;;4931541;29;20036;-74
2022/06/30 04:48:49;;;;;;;3.40;1.00;;;14.50;61.00;;;;;;4940778;28;20034;-74
2022/06/30 04:51:15;;;;;;;1.85;0.70;;;14.50;61.00;;;;;;4941633;28;20094;-73
2022/06/30 04:53:42;;;;;;;1.45;0.95;;;14.50;61.00;;;;;;4936108;28;20114;-73
2022/06/30 04:56:09;;;;;;;1.02;0.70;;;14.50;61.50;;;;;;4943106;28;20554;-74
2022/06/30 04:58:36;;;;;;;2.13;0.80;;;14.50;61.00;;;;;;4926796;29;20588;-73
2022/06/30 05:01:02;;;;;;;2.83;0.68;;;14.50;61.00;;;;;;4928564;28;20027;-75
2022/06/30 05:03:29;;;;;;;2.95;0.90;;;14.50;60.90;;;;;;4943756;28;20522;-74
2022/06/30 05:05:55;;;;;;;1.17;0.70;;;14.50;60.90;;;;;;4934781;28;20035;-74
2022/06/30 05:08:21;;;;;;;1.23;0.65;;;14.60;61.00;;;;;;4916691;29;20615;-74
2022/06/30 05:10:47;;;;;;;2.05;1.15;;;14.60;60.90;;;;;;4915262;29;20047;-76
2022/06/30 05:13:13;;;;;;;2.25;1.13;;;14.70;61.00;;;;;;4920859;29;20083;-74
2022/06/30 05:15:39;;;;;;;1.27;0.77;;;14.70;60.90;;;;;;4940164;28;20255;-73
2022/06/30 05:18:05;;;;;;;2.38;1.00;;;14.80;61.00;;;;;;4941080;28;20081;-74
2022/06/30 05:20:32;;;;;;;1.58;0.77;;;14.90;61.10;;;;;;4931713;28;20039;-76
2022/06/30 05:22:58;;;;;;;4.10;1.45;;;14.90;61.00;;;;;;4934993;28;20064;-76
2022/06/30 05:28:09;;;;;;;5.78;0.93;;;15.10;61.00;;;;;;4943941;28;20027;-77
2022/06/30 05:30:35;;;;;;;3.50;1.35;;;15.20;60.80;;;;;;4922209;28;20502;-76
2022/06/30 05:33:01;;;;;;;2.22;0.88;;;15.20;60.80;;;;;;4934272;28;20027;-78
2022/06/30 05:35:27;;;;;;;2.08;0.95;;;15.30;60.80;;;;;;4935277;28;20039;-76
2022/06/30 05:37:53;;;;;;;3.70;1.13;;;15.40;60.90;;;;;;4940057;28;20031;-77
2022/06/30 05:40:19;;;;;;;2.22;1.50;;;15.50;60.90;;;;;;4916918;29;20035;-76
2022/06/30 05:42:44;;;;;;;2.38;1.08;;;15.60;61.00;;;;;;4934072;28;20511;-76
2022/06/30 05:45:10;;;;;;;2.17;1.20;;;15.60;60.90;;;;;;4937283;28;20084;-75
2022/06/30 05:47:47;;;;;;;3.67;1.10;;;15.60;60.80;;;;;;4939286;28;20024;-75
2022/06/30 05:50:14;;;;;;;2.22;0.93;;;15.80;61.10;;;;;;4938918;28;20083;-76
2022/06/30 05:52:44;;;;;;;2.13;0.95;;;15.80;61.00;;;;;;4929753;28;20028;-74
2022/06/30 05:55:10;;;;;;;3.10;1.10;;;16.00;61.20;;;;;;4939850;29;20035;-78
2022/06/30 05:58:09;;;;;;;1.98;0.95;;;16.10;61.20;;;;;;4938430;28;20085;-79
2022/06/30 06:00:35;;;;;;;3.45;1.00;;;16.30;61.40;;;;;;4910411;28;20074;-75
2022/06/30 06:03:01;;;;;;;2.80;1.10;;;16.50;61.30;;;;;;4923603;28;20094;-76
2022/06/30 06:05:27;;;;;;;3.90;1.42;;;16.60;61.20;;;;;;4933612;28;20426;-79
2022/06/30 06:07:53;;;;;;;1.80;1.00;;;16.80;61.30;;;;;;4944811;28;20035;-74
2022/06/30 06:10:19;;;;;;;3.25;1.20;;;16.90;61.30;;;;;;4915958;29;20035;-75
2022/06/30 06:12:45;;;;;;;2.25;1.20;;;17.10;61.40;;;;;;4939809;28;20038;-76
2022/06/30 06:15:12;;;;;;;3.22;1.15;;;17.30;61.40;;;;;;4935696;28;20035;-78
2022/06/30 06:17:46;;;;;;;2.67;1.10;;;17.60;61.60;;;;;;4943485;28;20019;-77
2022/06/30 06:20:15;;;;;;;2.78;0.90;;;17.90;61.90;;;;;;4940542;28;20035;-77
2022/06/30 06:22:41;;;;;;;5.13;1.30;;;18.30;62.50;;;;;;4941603;28;20038;-77
2022/06/30 06:25:08;;;;;;;4.18;1.13;;;18.70;62.00;;;;;;4924108;28;20094;-76
2022/06/30 06:27:34;;;;;;;4.57;1.63;;;19.20;62.10;;;;;;4942533;28;20684;-77
2022/06/30 06:30:03;;;;;;;5.22;1.70;;;19.80;62.20;;;;;;4941028;28;20043;-76
2022/06/30 06:32:29;;;;;;;2.78;0.95;;;20.40;61.80;;;;;;4943919;28;20034;-74
2022/06/30 06:34:55;;;;;;;4.93;1.60;;;21.30;61.60;;;;;;4933982;28;20038;-78
2022/06/30 06:37:21;;;;;;;3.58;1.05;;;22.00;61.00;;;;;;4942630;28;20086;-75
2022/06/30 06:39:47;;;;;;;8.13;2.53;;;22.60;60.50;;;;;;4912397;28;20035;-78
2022/06/30 06:42:12;;;;;;;2.83;1.00;;;22.90;60.00;;;;;;4933251;29;20262;-76
2022/06/30 06:44:39;;;;;;;3.95;1.00;;;23.20;60.20;;;;;;4935540;28;20526;-75
2022/06/30 06:47:06;;;;;;;3.20;1.10;;;23.60;60.10;;;;;;4936740;28;20027;-76
2022/06/30 06:49:32;;;;;;;2.13;0.80;;;24.10;59.80;;;;;;4936559;28;20038;-77
2022/06/30 06:51:58;;;;;;;4.70;1.55;;;24.60;59.50;;;;;;4935874;28;20396;-76
2022/06/30 06:54:24;;;;;;;5.03;0.90;;;25.10;59.30;;;;;;4942518;28;20094;-77
2022/06/30 06:56:50;;;;;;;3.38;1.65;;;25.50;58.50;;;;;;4936552;28;20125;-75
2022/06/30 06:59:16;;;;;;;4.05;0.93;;;26.00;57.90;;;;;;4941162;28;20030;-74
2022/06/30 07:01:43;;;;;;;4.03;1.20;;;26.50;57.80;;;;;;4940134;28;20107;-76
2022/06/30 07:04:09;;;;;;;2.38;1.08;;;26.90;56.50;;;;;;4941792;28;20128;-76
2022/06/30 07:06:35;;;;;;;2.58;1.27;;;27.40;55.90;;;;;;4937967;28;20028;-77
2022/06/30 07:09:02;;;;;;;3.38;1.27;;;27.80;55.20;;;;;;4942759;28;20097;-78
2022/06/30 07:11:28;;;;;;;3.33;1.15;;;28.20;54.70;;;;;;4937246;28;20046;-76
2022/06/30 07:13:53;;;;;;;4.45;1.17;;;28.60;54.10;;;;;;4936281;28;20027;-76
2022/06/30 07:16:20;;;;;;;2.33;0.80;;;29.00;53.50;;;;;;4925366;29;20063;-75
2022/06/30 07:18:46;;;;;;;4.28;1.17;;;29.30;53.00;;;;;;4938005;28;20122;-77
2022/06/30 07:21:12;;;;;;;2.88;1.45;;;29.60;52.30;;;;;;4916948;29;20066;-77
2022/06/30 07:23:38;;;;;;;3.17;1.20;;;29.90;52.00;;;;;;4935177;28;20055;-78
2022/06/30 07:26:04;;;;;;;2.03;0.85;;;29.90;51.80;;;;;;4939421;28;20158;-75
2022/06/30 07:28:30;;;;;;;2.13;0.80;;;29.90;52.00;;;;;;4935759;28;20578;-79
2022/06/30 07:30:56;;;;;;;1.55;0.70;;;29.90;52.10;;;;;;4941661;28;20467;-76
2022/06/30 07:33:22;;;;;;;1.45;0.90;;;29.90;52.10;;;;;;4921053;29;20547;-76
2022/06/30 07:35:47;;;;;;;1.67;0.95;;;30.00;51.80;;;;;;4936244;28;20206;-76
2022/06/30 07:38:13;;;;;;;2.10;1.00;;;30.40;51.30;;;;;;4925838;29;20031;-78
2022/06/30 07:40:39;;;;;;;2.80;0.80;;;30.90;50.30;;;;;;4904471;28;20042;-77
2022/06/30 07:43:05;;;;;;;4.18;1.17;;;31.40;49.40;;;;;;4931256;28;20137;-79
2022/06/30 07:45:31;;;;;;;3.10;1.10;;;31.80;48.50;;;;;;4920125;29;20488;-75
2022/06/30 07:47:58;;;;;;;2.60;0.70;;;32.20;47.70;;;;;;4918196;28;20035;-76
2022/06/30 07:50:23;;;;;;;2.85;0.88;;;32.50;46.90;;;;;;4939183;28;20074;-76
2022/06/30 07:52:49;;;;;;;2.35;0.85;;;32.90;46.30;;;;;;4941709;28;20063;-77
2022/06/30 07:55:16;;;;;;;1.88;0.70;;;33.30;45.40;;;;;;4936429;28;20047;-75
2022/06/30 07:57:42;;;;;;;3.47;1.00;;;33.80;44.70;;;;;;4939212;28;20615;-75
2022/06/30 08:00:10;;;;;;;5.50;1.08;;;34.20;44.10;;;;;;4938991;28;20031;-76
2022/06/30 08:02:39;;;;;;;2.00;0.73;;;34.50;43.40;;;;;;4933797;28;20046;-75
2022/06/30 08:05:06;;;;;;;2.92;0.95;;;34.80;42.90;;;;;;4920017;28;20032;-75
2022/06/30 08:07:33;;;;;;;3.40;0.93;;;34.80;42.60;;;;;;4939242;28;20499;-76
2022/06/30 08:10:00;;;;;;;2.88;1.25;;;34.60;43.00;;;;;;4931997;28;20035;-75
2022/06/30 08:12:26;;;;;;;2.17;0.80;;;34.20;43.50;;;;;;4935235;28;20122;-74
2022/06/30 08:14:52;;;;;;;1.50;0.75;;;33.80;44.00;;;;;;4935239;28;20031;-77
2022/06/30 08:17:18;;;;;;;1.83;0.88;;;33.30;44.30;;;;;;4939285;28;20027;-78
2022/06/30 08:19:44;;;;;;;1.88;0.82;;;33.00;44.80;;;;;;4939457;28;20572;-78
2022/06/30 08:22:10;;;;;;;3.03;0.93;;;32.60;45.10;;;;;;4937361;28;20039;-78
2022/06/30 08:24:36;;;;;;;1.65;0.63;;;32.30;45.30;;;;;;4938728;28;20455;-78
2022/06/30 08:27:03;;;;;;;2.75;1.30;;;32.00;45.60;;;;;;4941686;28;20066;-79
2022/06/30 08:29:35;;;;;;;1.98;1.10;;;31.80;45.70;;;;;;4932869;28;20055;-78
2022/06/30 08:32:04;;;;;;;2.13;0.93;;;31.60;45.70;;;;;;4920934;29;20582;-78
2022/06/30 08:34:30;;;;;;;2.42;1.00;;;31.50;45.90;;;;;;4940532;28;20030;-78
2022/06/30 08:36:56;;;;;;;3.63;1.15;;;31.40;46.00;;;;;;4925714;28;20465;-79
2022/06/30 08:42:12;;;;;;;2.20;0.90;;;31.30;45.90;;;;;;4935613;28;20027;-80
2022/06/30 08:44:43;;;;;;;1.13;0.50;;;31.20;45.80;;;;;;4934870;28;20180;-75
2022/06/30 08:47:09;;;;;;;3.25;1.10;;;31.10;45.70;;;;;;4939078;28;20020;-77
2022/06/30 08:49:35;;;;;;;2.80;1.13;;;31.20;45.80;;;;;;4918095;29;20090;-75
2022/06/30 08:52:01;;;;;;;3.00;0.70;;;31.20;45.50;;;;;;4916094;28;20447;-76
2022/06/30 08:54:30;;;;;;;2.28;1.25;;;31.30;45.40;;;;;;4937561;28;20034;-77
2022/06/30 08:57:00;;;;;;;2.58;0.73;;;31.40;45.20;;;;;;4943846;28;20039;-77
2022/06/30 08:59:28;;;;;;;1.55;0.70;;;31.50;45.00;;;;;;4944667;28;20079;-75
2022/06/30 09:01:54;;;;;;;4.05;1.42;;;31.60;44.80;;;;;;4922487;28;20269;-76
2022/06/30 09:04:24;;;;;;;3.97;1.35;;;31.70;44.60;;;;;;4926566;29;20352;-77
2022/06/30 09:06:50;;;;;;;2.97;1.23;;;31.80;44.30;;;;;;4944518;28;20035;-76
2022/06/30 09:09:16;;;;;;;3.08;1.35;;;31.90;44.20;;;;;;4922235;28;20027;-77
2022/06/30 09:12:03;;;;;;;2.28;1.20;;;32.00;44.00;;;;;;4937638;28;21089;-76
2022/06/30 09:14:37;;;;;;;2.55;1.05;;;32.10;43.70;;;;;;4938200;28;20099;-75
2022/06/30 09:17:06;;;;;;;2.95;0.65;;;32.20;43.40;;;;;;4921272;28;20031;-76
2022/06/30 09:19:33;;;;;;;4.45;1.15;;;32.30;43.30;;;;;;4924069;28;20372;-77
2022/06/30 09:22:21;;;;;;;2.20;0.95;;;32.40;43.10;;;;;;4927255;28;20118;-76
2022/06/30 09:25:00;;;;;;;2.03;0.82;;;32.50;42.70;;;;;;4941531;28;20031;-77
2022/06/30 09:27:29;;;;;;;2.80;0.93;;;32.60;42.60;;;;;;4935756;28;20452;-78
2022/06/30 09:30:09;;;;;;;2.92;1.20;;;32.50;42.80;;;;;;4925143;28;20480;-80
2022/06/30 09:32:56;;;;;;;2.38;1.00;;;32.40;42.80;;;;;;4934930;28;20047;-77
2022/06/30 09:35:25;;;;;;;2.70;0.95;;;32.50;42.80;;;;;;4923788;28;20881;-75
2022/06/30 09:38:03;;;;;;;2.95;1.10;;;32.70;42.80;;;;;;4925014;29;20039;-76
2022/06/30 09:41:01;;;;;;;1.13;0.60;;;32.60;42.50;;;;;;4940974;28;20603;-80
2022/06/30 09:43:31;;;;;;;3.10;1.05;;;32.30;42.40;;;;;;4938889;28;20046;-77
2022/06/30 09:45:57;;;;;;;2.17;0.80;;;32.10;42.80;;;;;;4939888;28;20043;-77
2022/06/30 09:48:27;;;;;;;2.30;1.02;;;32.20;43.00;;;;;;4924851;28;20024;-77
2022/06/30 09:50:57;;;;;;;3.00;0.90;;;32.30;42.60;;;;;;4904256;28;20098;-77
2022/06/30 09:53:23;;;;;;;2.35;1.00;;;32.30;42.30;;;;;;4932806;28;20137;-77
2022/06/30 09:55:49;;;;;;;1.77;0.77;;;32.30;42.40;;;;;;4920030;28;20513;-76
2022/06/30 09:58:30;;;;;;;3.08;0.85;;;32.00;42.50;;;;;;4940432;28;20023;-77
2022/06/30 10:00:59;;;;;;;3.13;1.20;;;31.70;42.40;;;;;;4940109;28;20074;-78
2022/06/30 10:03:25;;;;;;;3.88;1.15;;;31.70;42.70;;;;;;4922656;28;20027;-77
2022/06/30 10:06:08;;;;;;;2.58;0.82;;;31.60;42.90;;;;;;4922588;28;20055;-77
2022/06/30 10:08:34;;;;;;;4.15;1.42;;;31.50;42.80;;;;;;4937600;28;20028;-77
2022/06/30 10:11:01;;;;;;;1.98;0.95;;;31.60;42.90;;;;;;4942293;28;20046;-76
2022/06/30 10:13:27;;;;;;;3.42;0.93;;;31.70;42.70;;;;;;4940047;28;20049;-76
2022/06/30 10:15:55;;;;;;;2.35;0.90;;;31.70;42.50;;;;;;4926780;28;20035;-77
2022/06/30 10:18:25;;;;;;;2.70;0.70;;;31.70;42.50;;;;;;4938109;28;20059;-77
2022/06/30 10:20:51;;;;;;;1.58;0.73;;;31.60;42.60;;;;;;4943303;28;20031;-77
2022/06/30 10:23:21;;;;;;;2.20;0.73;;;31.50;42.70;;;;;;4939409;28;20059;-77
2022/06/30 10:25:51;;;;;;;2.55;1.30;;;31.40;42.80;;;;;;4938257;28;20038;-76
2022/06/30 10:28:19;;;;;;;1.52;0.70;;;31.30;42.90;;;;;;4943247;28;20487;-78
2022/06/30 10:31:05;;;;;;;1.50;0.80;;;31.50;42.80;;;;;;4945114;28;20114;-77
2022/06/30 10:34:09;;;;;;;2.20;1.13;;;31.70;42.40;;;;;;4917210;29;20027;-77
2022/06/30 10:36:50;;;;;;;1.42;0.80;;;31.90;42.10;;;;;;4913744;28;20031;-77
2022/06/30 10:39:58;;;;;;;2.00;0.85;;;32.00;42.00;;;;;;4933486;28;20023;-78
2022/06/30 10:42:55;;;;;;;1.90;0.70;;;31.90;42.00;;;;;;4920367;28;20050;-76
2022/06/30 10:45:26;;;;;;;2.10;0.57;;;31.80;42.20;;;;;;4939046;28;20089;-78
2022/06/30 10:47:57;;;;;;;2.90;1.08;;;31.80;42.60;;;;;;4923850;28;20027;-77
2022/06/30 10:50:35;;;;;;;1.10;0.63;;;31.90;42.50;;;;;;4939627;28;20043;-77
2022/06/30 10:53:03;;;;;;;2.80;1.25;;;32.00;42.50;;;;;;4940091;28;20027;-75
2022/06/30 10:55:40;;;;;;;2.97;1.25;;;32.40;42.30;;;;;;4938064;28;20032;-76
2022/06/30 10:58:07;;;;;;;1.50;0.60;;;32.90;41.80;;;;;;4944687;28;20043;-76
2022/06/30 11:00:43;;;;;;;1.60;0.47;;;33.20;41.20;;;;;;4911532;29;20028;-81
2022/06/30 11:03:09;;;;;;;1.48;0.55;;;33.60;40.90;;;;;;4928424;28;20194;-83
2022/06/30 11:05:50;;;;;;;1.70;0.80;;;33.80;40.40;;;;;;4930988;29;20030;-81
2022/06/30 11:08:50;;;;;;;2.57;1.10;;;33.70;39.70;;;;;;4928938;29;20023;-81
2022/06/30 11:11:22;;;;;;;2.53;1.10;;;33.10;40.00;;;;;;4905737;29;20460;-81
2022/06/30 11:14:01;;;;;;;1.90;0.90;;;32.50;40.80;;;;;;4926440;29;20035;-77
2022/06/30 11:16:28;;;;;;;2.38;1.00;;;31.90;41.40;;;;;;4925266;28;20558;-78
2022/06/30 11:18:57;;;;;;;2.22;0.75;;;31.50;41.90;;;;;;4945745;28;20100;-78
2022/06/30 11:21:23;;;;;;;2.42;1.00;;;31.10;42.10;;;;;;4926051;28;20069;-80
2022/06/30 11:23:50;;;;;;;3.60;1.17;;;30.90;42.40;;;;;;4944234;28;20099;-78
2022/06/30 11:29:10;;;;;;;2.20;0.80;;;30.50;42.70;;;;;;4922732;29;20499;-77
2022/06/30 11:31:38;;;;;;;1.95;0.93;;;30.40;42.90;;;;;;4944002;28;20127;-79
2022/06/30 11:34:16;;;;;;;1.90;0.70;;;30.30;42.90;;;;;;4911968;28;20034;-78
2022/06/30 11:36:44;;;;;;;3.47;1.08;;;30.50;43.20;;;;;;4922096;29;20070;-77
2022/06/30 11:39:17;;;;;;;2.67;0.90;;;30.90;42.70;;;;;;4921892;29;20474;-78
2022/06/30 11:41:57;;;;;;;1.77;0.75;;;31.00;42.30;;;;;;4920500;28;20031;-76
2022/06/30 11:44:25;;;;;;;1.42;0.60;;;31.10;42.10;;;;;;4939289;28;20516;-76
2022/06/30 11:46:57;;;;;;;3.22;0.93;;;31.10;42.10;;;;;;4920630;28;20028;-76
2022/06/30 11:49:27;;;;;;;5.32;0.85;;;31.10;42.10;;;;;;4937505;28;20038;-77
2022/06/30 11:51:54;;;;;;;1.55;0.55;;;31.10;42.10;;;;;;4927601;29;20076;-79
2022/06/30 11:54:26;;;;;;;2.97;0.70;;;31.20;42.30;;;;;;4922887;28;20098;-78
2022/06/30 11:56:53;;;;;;;;;;;31.40;42.40;;;;;;4933631;28;20038;-80
2022/06/30 11:59:20;;;;;;;2.13;0.88;;;31.70;42.30;;;;;;4946984;28;19914;-78
2022/06/30 12:02:00;;;;;;;1.52;0.55;;;32.20;41.80;;;;;;4944833;28;20055;-78
2022/06/30 12:04:27;;;;;;;2.90;0.60;;;32.50;41.10;;;;;;4948686;28;20253;-77
2022/06/30 12:06:53;;;;;;;1.13;0.50;;;32.50;41.10;;;;;;4926924;28;20153;-78
2022/06/30 12:09:19;;;;;;;2.50;0.57;;;32.30;40.80;;;;;;4943254;28;20055;-78
2022/06/30 12:11:46;;;;;;;1.67;0.50;;;32.20;40.90;;;;;;4940125;28;20051;-77
2022/06/30 12:14:12;;;;;;;1.25;0.50;;;32.00;40.90;;;;;;4943649;28;20023;-75
2022/06/30 12:16:38;;;;;;;2.30;0.85;;;31.90;41.60;;;;;;4939667;28;20042;-75
2022/06/30 12:19:04;;;;;;;2.15;0.73;;;31.80;41.10;;;;;;4934322;28;20376;-75
2022/06/30 12:21:32;;;;;;;1.75;0.70;;;31.70;41.20;;;;;;4920256;28;20027;-75
2022/06/30 12:23:59;;;;;;;1.80;0.77;;;31.50;41.20;;;;;;4913728;28;20137;-75
2022/06/30 12:26:26;;;;;;;2.15;0.85;;;31.40;41.40;;;;;;4939654;28;20027;-75
2022/06/30 12:28:55;;;;;;;2.08;0.60;;;31.30;41.60;;;;;;4937807;28;20555;-76
2022/06/30 12:31:28;;;;;;;1.95;0.47;;;31.10;41.60;;;;;;4941367;28;20070;-78
2022/06/30 12:33:56;;;;;;;1.02;0.52;;;31.00;41.80;;;;;;4921674;29;20043;-77
2022/06/30 12:36:24;;;;;;;1.65;0.68;;;30.90;41.90;;;;;;4922336;29;20027;-78
2022/06/30 12:38:50;;;;;;;1.45;0.50;;;30.90;41.90;;;;;;4925920;29;20020;-78
2022/06/30 12:41:17;;;;;;;1.58;0.50;;;30.90;42.00;;;;;;4913015;29;20503;-77
2022/06/30 12:43:49;;;;;;;2.38;1.00;;;30.90;42.70;;;;;;4926083;29;20047;-77
2022/06/30 12:46:17;;;;;;;1.23;0.60;;;30.90;42.10;;;;;;4925267;28;20031;-78
2022/06/30 12:48:51;;;;;;;1.17;0.40;;;30.90;42.10;;;;;;4931730;28;20480;-78
2022/06/30 12:51:35;;;;;;;2.38;0.60;;;30.80;42.10;;;;;;4937781;28;20103;-78
2022/06/30 12:54:04;;;;;;;1.08;0.35;;;30.80;42.20;;;;;;4939897;28;20169;-78
2022/06/30 12:56:31;;;;;;;1.67;0.50;;;30.70;42.20;;;;;;4925314;28;20050;-79
2022/06/30 12:59:23;;;;;;;1.42;0.75;;;30.70;42.30;;;;;;4944364;28;20267;-78
2022/06/30 13:01:56;;;;;;;1.38;0.55;;;30.70;42.90;;;;;;4920682;29;20035;-79
2022/06/30 13:04:24;;;;;;;;;;;30.70;42.30;;;;;;4925554;28;20356;-77
2022/06/30 13:06:52;;;;;;;0.85;0.52;;;30.90;42.40;;;;;;4940463;28;20061;-79
2022/06/30 13:09:21;;;;;;;0.50;0.22;;;30.90;42.20;;;;;;4940114;28;20530;-77
2022/06/30 13:11:50;;;;;;;1.35;0.50;;;31.10;42.10;;;;;;4941145;28;20047;-75